Time;durP1;ratioP1;P1;durP2;ratioP2;P2;SDS_P1;SDS_P2;PMS_P1;PMS_P2;Temp;Humidity;BMP_temperature;BMP_pressure;BME280_temperature;BME280_humidity;BME280_pressure;Samples;Min_cycle;Max_cycle;Signal;HPM_P1;HPM_P2
2022/08/05 00:00:56;;;;;;;1.37;1.27;;;;;;;;;;5065470;28;20200;-69
2022/08/05 00:03:50;;;;;;;2.00;1.30;;;;;;;;;;5048676;28;20622;-68
2022/08/05 00:06:28;;;;;;;1.37;1.27;;;;;;;;;;5048978;28;20217;-68
2022/08/05 00:09:06;;;;;;;1.27;1.17;;;;;;;;;;5045990;28;20276;-68
2022/08/05 00:11:40;;;;;;;1.37;1.27;;;;;;;;;;5050782;28;20212;-68
2022/08/05 00:14:22;;;;;;;1.17;1.17;;;;;;;;;;5061284;28;20221;-68
2022/08/05 00:16:56;;;;;;;1.27;1.17;;;;;;;;;;5037882;28;20314;-69
2022/08/05 00:19:31;;;;;;;1.47;1.37;;;;;;;;;;5061104;28;20209;-68
2022/08/05 00:22:26;;;;;;;1.27;1.17;;;;;;;;;;5060165;28;20240;-69
2022/08/05 00:24:58;;;;;;;1.47;1.20;;;;;;;;;;5057111;28;20206;-68
2022/08/05 00:27:34;;;;;;;1.40;1.30;;;;;;;;;;5057861;28;20225;-68
2022/08/05 00:30:10;;;;;;;1.40;1.30;;;;;;;;;;5066252;28;20209;-68
2022/08/05 00:32:40;;;;;;;1.30;1.20;;;;;;;;;;5067258;28;20197;-68
2022/08/05 00:35:14;;;;;;;1.10;1.00;;;;;;;;;;5056221;28;20236;-68
2022/08/05 00:37:48;;;;;;;1.27;1.17;;;;;;;;;;5064820;28;20204;-69
2022/08/05 00:40:26;;;;;;;1.30;1.20;;;;;;;;;;5061852;28;20225;-68
2022/08/05 00:43:02;;;;;;;1.30;1.20;;;;;;;;;;5047000;28;20773;-68
2022/08/05 00:45:35;;;;;;;1.37;1.17;;;;;;;;;;5063543;28;20190;-68
2022/08/05 00:48:31;;;;;;;1.23;1.13;;;;;;;;;;5060097;28;20275;-68
2022/08/05 00:51:20;;;;;;;1.03;1.03;;;;;;;;;;5051725;28;20198;-68
2022/08/05 00:54:15;;;;;;;1.20;1.10;;;;;;;;;;5050469;28;20217;-68
2022/08/05 00:56:46;;;;;;;1.37;1.27;;;;;;;;;;5048484;28;20260;-68
2022/08/05 00:59:18;;;;;;;1.40;1.30;;;;;;;;;;5054991;28;20634;-68
2022/08/05 01:01:52;;;;;;;0.90;0.90;;;;;;;;;;5065407;28;20195;-68
2022/08/05 01:04:23;;;;;;;1.20;1.10;;;;;;;;;;5054121;28;20225;-68
2022/08/05 01:06:58;;;;;;;1.87;1.40;;;;;;;;;;5066499;28;20645;-69
2022/08/05 01:09:32;;;;;;;1.30;1.20;;;;;;;;;;5062660;28;20212;-68
2022/08/05 01:12:11;;;;;;;1.00;1.00;;;;;;;;;;5069986;28;20215;-68
2022/08/05 01:15:06;;;;;;;1.40;1.30;;;;;;;;;;5043417;28;20608;-68
2022/08/05 01:18:00;;;;;;;1.00;1.00;;;;;;;;;;5055648;28;20770;-68
2022/08/05 01:20:56;;;;;;;2.83;1.20;;;;;;;;;;5068148;28;20209;-69
2022/08/05 01:23:46;;;;;;;1.30;1.20;;;;;;;;;;5004150;28;20210;-68
2022/08/05 01:26:39;;;;;;;1.20;1.10;;;;;;;;;;5051606;28;20548;-68
2022/08/05 01:29:29;;;;;;;1.17;1.07;;;;;;;;;;5062396;28;20267;-68
2022/08/05 01:32:02;;;;;;;1.10;1.00;;;;;;;;;;5077834;28;20228;-68
2022/08/05 01:34:54;;;;;;;1.20;1.10;;;;;;;;;;5067189;28;20208;-68
2022/08/05 01:37:44;;;;;;;1.40;1.30;;;;;;;;;;5033400;28;20267;-68
2022/08/05 01:40:18;;;;;;;1.30;1.20;;;;;;;;;;5057511;28;20249;-68
2022/08/05 01:43:00;;;;;;;1.13;1.03;;;;;;;;;;5069107;28;20288;-68
2022/08/05 01:45:32;;;;;;;1.27;1.17;;;;;;;;;;5066347;28;20211;-68
2022/08/05 01:48:14;;;;;;;1.33;1.23;;;;;;;;;;5061179;28;20627;-68
2022/08/05 01:50:46;;;;;;;1.13;1.03;;;;;;;;;;5069412;28;20274;-68
2022/08/05 01:53:23;;;;;;;1.10;1.00;;;;;;;;;;5063274;28;20239;-69
2022/08/05 01:56:19;;;;;;;1.20;1.10;;;;;;;;;;5068785;28;20230;-68
2022/08/05 01:59:14;;;;;;;1.97;1.10;;;;;;;;;;5066241;28;20194;-68
2022/08/05 02:01:45;;;;;;;1.17;1.17;;;;;;;;;;5062391;28;20200;-68
2022/08/05 02:04:18;;;;;;;1.00;1.00;;;;;;;;;;5062139;28;20670;-69
2022/08/05 02:06:53;;;;;;;1.20;1.10;;;;;;;;;;5068901;28;20197;-68
2022/08/05 02:09:24;;;;;;;1.03;1.03;;;;;;;;;;5065796;28;20254;-68
2022/08/05 02:12:10;;;;;;;0.90;0.90;;;;;;;;;;5068632;28;20627;-68
2022/08/05 02:14:57;;;;;;;0.90;0.90;;;;;;;;;;5062951;28;20285;-69
2022/08/05 02:17:32;;;;;;;1.60;1.00;;;;;;;;;;5067980;28;20869;-68
2022/08/05 02:20:23;;;;;;;1.20;1.10;;;;;;;;;;5067928;28;20263;-68
2022/08/05 02:22:58;;;;;;;1.50;1.20;;;;;;;;;;5052061;28;20194;-68
2022/08/05 02:25:39;;;;;;;1.17;1.03;;;;;;;;;;5065481;28;20186;-68
2022/08/05 02:28:19;;;;;;;1.07;1.03;;;;;;;;;;5065170;28;20209;-68
2022/08/05 02:31:00;;;;;;;1.03;0.93;;;;;;;;;;5056286;28;20210;-69
2022/08/05 02:33:38;;;;;;;1.00;1.00;;;;;;;;;;5068249;28;20283;-69
2022/08/05 02:36:18;;;;;;;1.20;1.10;;;;;;;;;;5068204;28;20282;-69
2022/08/05 02:38:47;;;;;;;1.37;0.93;;;;;;;;;;5030823;28;20201;-69
2022/08/05 02:41:21;;;;;;;1.00;1.00;;;;;;;;;;5053437;28;20229;-69
2022/08/05 02:44:12;;;;;;;1.17;1.10;;;;;;;;;;5056379;28;20178;-68
2022/08/05 02:46:45;;;;;;;1.30;1.20;;;;;;;;;;5069067;28;20255;-68
2022/08/05 02:49:31;;;;;;;1.33;1.20;;;;;;;;;;5052185;28;20272;-68
2022/08/05 02:52:20;;;;;;;0.90;0.90;;;;;;;;;;5053668;28;20622;-68
2022/08/05 02:55:02;;;;;;;1.20;1.10;;;;;;;;;;5067597;28;20190;-68
2022/08/05 02:57:41;;;;;;;1.30;1.20;;;;;;;;;;5067373;28;20210;-69
2022/08/05 03:00:35;;;;;;;1.10;1.00;;;;;;;;;;5064824;28;20280;-69
2022/08/05 03:03:05;;;;;;;1.03;0.93;;;;;;;;;;5064995;28;20177;-69
2022/08/05 03:05:42;;;;;;;1.23;1.10;;;;;;;;;;5072517;28;20207;-69
2022/08/05 03:08:38;;;;;;;1.40;1.10;;;;;;;;;;5077309;28;20190;-69
2022/08/05 03:11:28;;;;;;;1.17;1.07;;;;;;;;;;5064904;28;20185;-68
2022/08/05 03:14:20;;;;;;;1.10;1.00;;;;;;;;;;5067068;28;20704;-68
2022/08/05 03:16:54;;;;;;;1.47;1.10;;;;;;;;;;5067891;28;20222;-68
2022/08/05 03:19:25;;;;;;;0.73;0.73;;;;;;;;;;5064656;28;20593;-68
2022/08/05 03:22:01;;;;;;;1.10;1.00;;;;;;;;;;5067369;28;20193;-68
2022/08/05 03:24:32;;;;;;;0.87;0.87;;;;;;;;;;5067303;28;20194;-68
2022/08/05 03:27:06;;;;;;;0.80;0.80;;;;;;;;;;5046841;28;20208;-69
2022/08/05 03:29:39;;;;;;;1.00;1.00;;;;;;;;;;5069457;28;20239;-69
2022/08/05 03:32:33;;;;;;;1.10;1.10;;;;;;;;;;5053513;28;20204;-69
2022/08/05 03:35:04;;;;;;;1.10;1.00;;;;;;;;;;5047116;28;20201;-68
2022/08/05 03:37:35;;;;;;;1.10;0.93;;;;;;;;;;5047102;28;20450;-68
2022/08/05 03:40:14;;;;;;;1.00;1.00;;;;;;;;;;5060055;28;20704;-68
2022/08/05 03:42:59;;;;;;;0.90;0.90;;;;;;;;;;5066861;28;20519;-68
2022/08/05 03:45:51;;;;;;;1.27;1.00;;;;;;;;;;5053946;28;20674;-68
2022/08/05 03:48:27;;;;;;;1.33;0.90;;;;;;;;;;5066889;28;20193;-68
2022/08/05 03:51:21;;;;;;;0.90;0.90;;;;;;;;;;5065081;28;20192;-68
2022/08/05 03:54:29;;;;;;;1.10;1.00;;;;;;;;;;5058913;28;20194;-68
2022/08/05 03:57:28;;;;;;;1.17;0.93;;;;;;;;;;5056565;28;20240;-68
2022/08/05 04:00:11;;;;;;;1.10;0.97;;;;;;;;;;5070816;28;20595;-69
2022/08/05 04:02:48;;;;;;;0.80;0.80;;;;;;;;;;5049372;28;20194;-69
2022/08/05 04:05:34;;;;;;;0.80;0.80;;;;;;;;;;5060530;28;20280;-69
2022/08/05 04:08:11;;;;;;;0.90;0.90;;;;;;;;;;5066942;28;20656;-70
2022/08/05 04:11:02;;;;;;;1.10;0.97;;;;;;;;;;5063859;28;20204;-70
2022/08/05 04:13:34;;;;;;;1.00;0.90;;;;;;;;;;5068592;28;20201;-70
2022/08/05 04:16:20;;;;;;;1.40;1.13;;;;;;;;;;5043127;28;20225;-70
2022/08/05 04:18:59;;;;;;;0.97;0.97;;;;;;;;;;5066786;28;20197;-70
2022/08/05 04:21:29;;;;;;;0.90;0.80;;;;;;;;;;5064317;28;20190;-70
2022/08/05 04:24:22;;;;;;;1.00;0.90;;;;;;;;;;5065343;28;20524;-70
2022/08/05 04:26:56;;;;;;;0.93;0.93;;;;;;;;;;5071760;28;20692;-70
2022/08/05 04:29:29;;;;;;;1.10;0.97;;;;;;;;;;5049901;28;20267;-70
2022/08/05 04:32:03;;;;;;;1.57;1.13;;;;;;;;;;5051082;28;20274;-70
2022/08/05 04:34:34;;;;;;;0.90;0.90;;;;;;;;;;5057791;28;20556;-70
2022/08/05 04:37:09;;;;;;;0.80;0.80;;;;;;;;;;5046008;28;20221;-70
2022/08/05 04:39:41;;;;;;;0.90;0.87;;;;;;;;;;5045297;28;20279;-70
2022/08/05 04:42:19;;;;;;;0.83;0.83;;;;;;;;;;5029173;28;20237;-71
2022/08/05 04:45:03;;;;;;;1.07;0.93;;;;;;;;;;5065410;28;20406;-70
2022/08/05 04:47:33;;;;;;;1.30;1.20;;;;;;;;;;5049676;28;20201;-70
2022/08/05 04:50:16;;;;;;;1.10;1.00;;;;;;;;;;5069473;28;20198;-70
2022/08/05 04:53:20;;;;;;;1.13;1.03;;;;;;;;;;5049506;28;20205;-70
2022/08/05 04:55:50;;;;;;;1.00;1.00;;;;;;;;;;5069595;28;20193;-70
2022/08/05 04:58:35;;;;;;;1.03;1.00;;;;;;;;;;5066196;28;20284;-70
2022/08/05 05:01:06;;;;;;;0.90;0.90;;;;;;;;;;5051059;28;20201;-71
2022/08/05 05:03:35;;;;;;;1.20;1.10;;;;;;;;;;5061948;28;20228;-70
2022/08/05 05:06:18;;;;;;;1.17;1.10;;;;;;;;;;5069499;28;20627;-70
2022/08/05 05:09:02;;;;;;;0.90;0.90;;;;;;;;;;5067976;28;20245;-70
2022/08/05 05:11:35;;;;;;;1.00;0.90;;;;;;;;;;5051257;28;20204;-70
2022/08/05 05:14:25;;;;;;;1.30;1.00;;;;;;;;;;5066933;28;20206;-70
2022/08/05 05:16:59;;;;;;;0.90;0.90;;;;;;;;;;5051847;28;20223;-70
2022/08/05 05:19:32;;;;;;;0.90;0.90;;;;;;;;;;5040333;28;20285;-71
2022/08/05 05:22:15;;;;;;;1.30;1.10;;;;;;;;;;5066810;28;20225;-71
2022/08/05 05:24:54;;;;;;;1.47;1.00;;;;;;;;;;5069436;28;20190;-70
2022/08/05 05:27:29;;;;;;;1.00;1.00;;;;;;;;;;5054273;28;20575;-70
2022/08/05 05:30:12;;;;;;;1.10;1.00;;;;;;;;;;5066767;28;20221;-71
2022/08/05 05:32:59;;;;;;;1.20;1.10;;;;;;;;;;5045739;28;20236;-71
2022/08/05 05:35:49;;;;;;;1.07;1.00;;;;;;;;;;5058108;28;20568;-71
2022/08/05 05:38:19;;;;;;;1.00;0.90;;;;;;;;;;5061335;28;20220;-71
2022/08/05 05:40:56;;;;;;;1.30;1.20;;;;;;;;;;5040030;28;20292;-70
2022/08/05 05:43:28;;;;;;;1.20;1.10;;;;;;;;;;5031840;28;20317;-71
2022/08/05 05:46:28;;;;;;;2.33;0.90;;;;;;;;;;5057815;28;20193;-71
2022/08/05 05:48:58;;;;;;;1.00;0.90;;;;;;;;;;5040104;28;20199;-71
2022/08/05 05:51:39;;;;;;;0.90;0.90;;;;;;;;;;5044125;28;20770;-70
2022/08/05 05:54:18;;;;;;;1.03;0.93;;;;;;;;;;5026744;28;20199;-70
2022/08/05 05:57:12;;;;;;;1.10;1.00;;;;;;;;;;5042395;28;20202;-70
2022/08/05 05:59:48;;;;;;;1.10;1.00;;;;;;;;;;5040746;28;20193;-70
2022/08/05 06:02:21;;;;;;;0.90;0.90;;;;;;;;;;5047181;28;20210;-70
2022/08/05 06:05:10;;;;;;;1.60;1.00;;;;;;;;;;5043550;28;20206;-70
2022/08/05 06:07:48;;;;;;;3.60;0.80;;;;;;;;;;5030937;28;20198;-70
2022/08/05 06:10:32;;;;;;;1.57;1.10;;;;;;;;;;5048233;28;20198;-70
2022/08/05 06:13:17;;;;;;;0.80;0.80;;;;;;;;;;5042781;28;20573;-70
2022/08/05 06:15:53;;;;;;;1.00;0.90;;;;;;;;;;5037718;28;20279;-70
2022/08/05 06:18:42;;;;;;;1.10;1.00;;;;;;;;;;5040005;28;20217;-70
2022/08/05 06:21:15;;;;;;;0.77;0.77;;;;;;;;;;5047592;28;20203;-70
2022/08/05 06:23:46;;;;;;;1.87;0.80;;;;;;;;;;5035673;28;20202;-70
2022/08/05 06:26:22;;;;;;;1.77;1.10;;;;;;;;;;5052124;28;20571;-70
2022/08/05 06:29:02;;;;;;;0.80;0.80;;;;;;;;;;5044585;28;20214;-70
2022/08/05 06:31:56;;;;;;;0.90;0.90;;;;;;;;;;5034562;28;20194;-70
2022/08/05 06:34:30;;;;;;;0.97;0.87;;;;;;;;;;5046759;28;20202;-70
2022/08/05 06:37:01;;;;;;;1.27;0.87;;;;;;;;;;5048639;28;20820;-70
2022/08/05 06:39:30;;;;;;;1.00;0.90;;;;;;;;;;5025554;28;20740;-70
2022/08/05 06:42:01;;;;;;;0.90;0.90;;;;;;;;;;5031585;28;20337;-70
2022/08/05 06:44:32;;;;;;;1.00;0.80;;;;;;;;;;5016883;28;20191;-71
2022/08/05 06:47:03;;;;;;;1.07;1.00;;;;;;;;;;5030029;28;20838;-70
2022/08/05 06:49:38;;;;;;;1.20;0.93;;;;;;;;;;5026142;28;20206;-70
2022/08/05 06:52:22;;;;;;;1.13;1.03;;;;;;;;;;5036985;28;20253;-70
2022/08/05 06:55:06;;;;;;;1.13;1.03;;;;;;;;;;5033656;28;20190;-70
2022/08/05 06:57:39;;;;;;;1.43;1.03;;;;;;;;;;5040083;28;20210;-70
2022/08/05 07:00:30;;;;;;;1.00;0.90;;;;;;;;;;5046095;28;20272;-70
2022/08/05 07:03:07;;;;;;;0.90;0.90;;;;;;;;;;5013346;28;20272;-70
2022/08/05 07:05:43;;;;;;;0.80;0.80;;;;;;;;;;5015012;28;20201;-70
2022/08/05 07:08:13;;;;;;;0.80;0.80;;;;;;;;;;5037018;28;20194;-70
2022/08/05 07:10:47;;;;;;;1.17;1.07;;;;;;;;;;5045984;28;20203;-70
2022/08/05 07:19:43;;;;;;;1.43;1.13;;;;;;;;;;5024370;28;20223;-70
2022/08/05 07:22:39;;;;;;;1.10;1.00;;;;;;;;;;5042956;28;20195;-70
2022/08/05 07:25:10;;;;;;;0.90;0.90;;;;;;;;;;5016722;28;20199;-70
2022/08/05 07:27:58;;;;;;;1.97;1.17;;;;;;;;;;5032658;28;20233;-70
2022/08/05 07:30:39;;;;;;;1.00;0.93;;;;;;;;;;5046949;28;20218;-70
2022/08/05 07:33:09;;;;;;;0.77;0.77;;;;;;;;;;5027849;28;20293;-70
2022/08/05 07:35:46;;;;;;;1.10;1.00;;;;;;;;;;5022307;28;20202;-70
2022/08/05 07:38:29;;;;;;;1.07;1.00;;;;;;;;;;5042931;28;20242;-70
2022/08/05 07:41:32;;;;;;;0.97;0.97;;;;;;;;;;5033792;28;20225;-70
2022/08/05 07:44:25;;;;;;;1.00;1.00;;;;;;;;;;5050694;28;20256;-70
2022/08/05 07:46:57;;;;;;;1.43;1.10;;;;;;;;;;5067530;28;20224;-70
2022/08/05 07:49:36;;;;;;;1.20;1.10;;;;;;;;;;5066612;28;20783;-70
2022/08/05 07:52:21;;;;;;;1.07;0.97;;;;;;;;;;5060352;28;20193;-69
2022/08/05 07:54:56;;;;;;;1.53;1.00;;;;;;;;;;5064826;28;20219;-70
2022/08/05 07:57:27;;;;;;;1.53;1.30;;;;;;;;;;5064336;28;20213;-70
2022/08/05 08:00:24;;;;;;;1.10;0.93;;;;;;;;;;5039013;28;20197;-71
2022/08/05 08:02:59;;;;;;;1.80;1.03;;;;;;;;;;5066818;28;20602;-70
2022/08/05 08:05:43;;;;;;;1.13;1.03;;;;;;;;;;5065189;28;20288;-70
2022/08/05 08:08:17;;;;;;;1.13;1.03;;;;;;;;;;5051667;28;20190;-70
2022/08/05 08:11:00;;;;;;;0.83;0.80;;;;;;;;;;5038061;28;20250;-70
2022/08/05 08:13:30;;;;;;;1.00;0.90;;;;;;;;;;5065494;28;20200;-69
2022/08/05 08:16:19;;;;;;;1.10;1.00;;;;;;;;;;5058738;28;20266;-69
2022/08/05 08:19:19;;;;;;;1.00;0.80;;;;;;;;;;5064555;28;20728;-69
2022/08/05 08:22:14;;;;;;;1.17;0.90;;;;;;;;;;5070785;28;20190;-69
2022/08/05 08:24:45;;;;;;;1.10;0.87;;;;;;;;;;5040471;28;20201;-69
2022/08/05 08:27:46;;;;;;;0.80;0.80;;;;;;;;;;5054114;28;20650;-69
2022/08/05 08:30:20;;;;;;;1.00;1.00;;;;;;;;;;5070409;28;20197;-69
2022/08/05 08:33:11;;;;;;;0.93;0.93;;;;;;;;;;5054911;28;20275;-69
2022/08/05 08:35:42;;;;;;;2.03;0.83;;;;;;;;;;5069847;28;20213;-69
2022/08/05 08:38:30;;;;;;;0.97;0.97;;;;;;;;;;5070116;28;20305;-69
2022/08/05 08:41:07;;;;;;;0.70;0.70;;;;;;;;;;5065894;28;20222;-69
2022/08/05 08:43:44;;;;;;;1.13;1.03;;;;;;;;;;5052039;28;20640;-69
2022/08/05 08:46:37;;;;;;;1.23;0.90;;;;;;;;;;5056618;28;20189;-69
2022/08/05 08:49:09;;;;;;;1.40;1.00;;;;;;;;;;5068650;28;20198;-69
2022/08/05 08:52:17;;;;;;;1.37;1.07;;;;;;;;;;5054684;28;20210;-68
2022/08/05 08:54:54;;;;;;;0.93;0.93;;;;;;;;;;5053722;28;20200;-69
2022/08/05 08:57:29;;;;;;;1.83;0.90;;;;;;;;;;5049829;28;20225;-68
2022/08/05 09:00:21;;;;;;;1.10;1.10;;;;;;;;;;5070163;28;20194;-68
2022/08/05 09:02:54;;;;;;;1.20;1.10;;;;;;;;;;5070244;28;20189;-69
2022/08/05 09:05:27;;;;;;;0.90;0.90;;;;;;;;;;5057364;28;20213;-68
2022/08/05 09:08:22;;;;;;;1.40;1.30;;;;;;;;;;5065912;28;20221;-69
2022/08/05 09:11:06;;;;;;;1.37;1.07;;;;;;;;;;5061898;28;20221;-68
2022/08/05 09:13:40;;;;;;;1.20;1.07;;;;;;;;;;5069783;28;20318;-68
2022/08/05 09:16:37;;;;;;;1.23;1.13;;;;;;;;;;5052794;28;20241;-68
2022/08/05 09:19:17;;;;;;;1.40;1.10;;;;;;;;;;5067012;28;20278;-68
2022/08/05 09:21:56;;;;;;;1.63;1.17;;;;;;;;;;5065564;28;20273;-68
2022/08/05 09:25:09;;;;;;;2.27;1.20;;;;;;;;;;5059697;28;20194;-68
2022/08/05 09:27:43;;;;;;;1.40;1.30;;;;;;;;;;5064838;28;20214;-69
2022/08/05 09:30:35;;;;;;;1.30;1.07;;;;;;;;;;5069411;28;20201;-69
2022/08/05 09:33:05;;;;;;;1.63;0.97;;;;;;;;;;5051578;28;20194;-69
2022/08/05 09:35:57;;;;;;;1.83;1.20;;;;;;;;;;5070458;28;20270;-69
2022/08/05 09:38:38;;;;;;;1.40;1.17;;;;;;;;;;5062304;28;20605;-69
2022/08/05 09:41:12;;;;;;;0.90;0.90;;;;;;;;;;5062341;28;20724;-69
2022/08/05 09:43:45;;;;;;;1.77;0.97;;;;;;;;;;5069008;28;20623;-69
2022/08/05 09:46:34;;;;;;;1.10;0.90;;;;;;;;;;5051525;28;20201;-69
2022/08/05 09:49:27;;;;;;;1.50;1.07;;;;;;;;;;5066816;28;20554;-69
2022/08/05 09:52:31;;;;;;;1.67;1.13;;;;;;;;;;5065190;28;20858;-69
2022/08/05 09:55:07;;;;;;;3.17;1.40;;;;;;;;;;5051020;28;20201;-70
2022/08/05 09:58:11;;;;;;;2.23;1.13;;;;;;;;;;5068765;28;20255;-69
2022/08/05 10:00:52;;;;;;;1.17;0.97;;;;;;;;;;5060301;28;20190;-69
2022/08/05 10:03:25;;;;;;;1.30;1.00;;;;;;;;;;5049389;28;20206;-69
2022/08/05 10:06:21;;;;;;;1.10;1.10;;;;;;;;;;5053961;28;20291;-69
2022/08/05 10:08:51;;;;;;;1.77;1.20;;;;;;;;;;5068919;28;20202;-69
2022/08/05 10:11:25;;;;;;;1.00;0.90;;;;;;;;;;5062547;28;20226;-69
2022/08/05 10:14:25;;;;;;;1.07;1.00;;;;;;;;;;5047810;28;20212;-69
2022/08/05 10:17:16;;;;;;;0.83;0.77;;;;;;;;;;5071216;28;20209;-69
2022/08/05 10:20:11;;;;;;;1.90;0.80;;;;;;;;;;5048532;28;20194;-69
2022/08/05 10:22:54;;;;;;;2.00;0.90;;;;;;;;;;5050036;28;20291;-69
2022/08/05 10:25:24;;;;;;;1.43;1.00;;;;;;;;;;5062514;28;20198;-69
2022/08/05 10:27:59;;;;;;;1.20;1.10;;;;;;;;;;5064601;28;20222;-69
2022/08/05 10:30:47;;;;;;;0.90;0.90;;;;;;;;;;5068734;28;20643;-69
2022/08/05 10:33:37;;;;;;;1.00;0.90;;;;;;;;;;5070554;28;20197;-69
2022/08/05 10:36:09;;;;;;;0.97;0.90;;;;;;;;;;5069706;28;20530;-69
2022/08/05 10:38:39;;;;;;;1.20;1.00;;;;;;;;;;5052584;28;20224;-69
2022/08/05 10:41:20;;;;;;;1.20;1.00;;;;;;;;;;5063965;28;20349;-69
2022/08/05 10:44:06;;;;;;;1.33;1.10;;;;;;;;;;5041840;28;20213;-69
2022/08/05 10:46:44;;;;;;;1.33;1.10;;;;;;;;;;5051909;28;20201;-69
2022/08/05 10:49:17;;;;;;;1.13;1.03;;;;;;;;;;5066050;28;20243;-69
2022/08/05 10:51:56;;;;;;;1.00;0.90;;;;;;;;;;5047745;28;20228;-69
2022/08/05 10:54:48;;;;;;;1.77;1.10;;;;;;;;;;5052079;28;20311;-69
2022/08/05 10:57:31;;;;;;;1.27;0.90;;;;;;;;;;5048804;28;20200;-69
2022/08/05 11:00:21;;;;;;;1.43;0.97;;;;;;;;;;5074785;28;20216;-69
2022/08/05 11:03:17;;;;;;;0.90;0.90;;;;;;;;;;5075286;28;20201;-69
2022/08/05 11:06:15;;;;;;;1.87;1.10;;;;;;;;;;5062685;28;20197;-69
2022/08/05 11:09:22;;;;;;;1.83;1.10;;;;;;;;;;5066930;28;20697;-69
2022/08/05 11:12:31;;;;;;;1.27;0.83;;;;;;;;;;4979412;28;20201;-69
2022/08/05 11:15:33;;;;;;;1.33;0.83;;;;;;;;;;5058772;28;20202;-69
2022/08/05 11:18:35;;;;;;;0.83;0.83;;;;;;;;;;5063914;28;20213;-69
2022/08/05 11:21:33;;;;;;;1.37;0.97;;;;;;;;;;5052918;28;20182;-69
2022/08/05 11:24:20;;;;;;;1.10;1.00;;;;;;;;;;5064966;28;20276;-69
2022/08/05 11:27:20;;;;;;;1.10;1.00;;;;;;;;;;5044334;28;20307;-69
2022/08/05 11:30:21;;;;;;;1.33;0.80;;;;;;;;;;5032030;28;20251;-69
2022/08/05 11:33:13;;;;;;;0.70;0.70;;;;;;;;;;5072111;28;20193;-69
2022/08/05 11:35:58;;;;;;;0.73;0.73;;;;;;;;;;5054291;28;20635;-69
2022/08/05 11:38:37;;;;;;;0.83;0.83;;;;;;;;;;5061915;28;20289;-69
2022/08/05 11:41:20;;;;;;;1.57;0.80;;;;;;;;;;5053678;28;20244;-69
2022/08/05 11:44:14;;;;;;;0.80;0.80;;;;;;;;;;5058196;28;20277;-69
2022/08/05 11:47:09;;;;;;;2.00;0.90;;;;;;;;;;5067655;28;20185;-69
2022/08/05 11:49:47;;;;;;;1.10;0.97;;;;;;;;;;5050491;28;20229;-69
2022/08/05 11:52:29;;;;;;;1.50;0.90;;;;;;;;;;5062666;28;20218;-69
2022/08/05 11:55:04;;;;;;;1.57;1.00;;;;;;;;;;5064320;28;20853;-69
2022/08/05 11:57:36;;;;;;;1.00;0.70;;;;;;;;;;5066750;28;20281;-68
2022/08/05 12:00:28;;;;;;;0.80;0.80;;;;;;;;;;5056365;28;20220;-69
2022/08/05 12:03:19;;;;;;;0.93;0.80;;;;;;;;;;5043226;28;20758;-69
2022/08/05 12:06:01;;;;;;;1.03;0.93;;;;;;;;;;5060666;28;20201;-68
2022/08/05 12:08:40;;;;;;;1.60;0.80;;;;;;;;;;5050583;28;20796;-69
2022/08/05 12:11:30;;;;;;;1.00;0.83;;;;;;;;;;5064279;28;20231;-67
2022/08/05 12:14:16;;;;;;;2.20;0.90;;;;;;;;;;5037397;28;20221;-69
2022/08/05 12:16:51;;;;;;;1.13;0.77;;;;;;;;;;5066332;28;20267;-69
2022/08/05 12:19:25;;;;;;;1.17;0.90;;;;;;;;;;5064227;28;20202;-70
2022/08/05 12:22:19;;;;;;;0.67;0.67;;;;;;;;;;5066495;28;20197;-69
2022/08/05 12:24:54;;;;;;;1.00;0.90;;;;;;;;;;5055470;28;20205;-69
2022/08/05 12:27:41;;;;;;;0.70;0.70;;;;;;;;;;5063791;28;20214;-69
2022/08/05 12:30:23;;;;;;;1.93;0.80;;;;;;;;;;5072531;28;20232;-69
2022/08/05 12:33:02;;;;;;;0.73;0.73;;;;;;;;;;5066291;28;20709;-69
2022/08/05 12:35:53;;;;;;;0.70;0.70;;;;;;;;;;5054850;28;20224;-69
2022/08/05 12:38:23;;;;;;;1.07;0.87;;;;;;;;;;5066926;28;20222;-69
2022/08/05 12:40:59;;;;;;;1.00;0.70;;;;;;;;;;5063587;28;20236;-70
2022/08/05 12:43:30;;;;;;;1.80;0.70;;;;;;;;;;5063521;28;20245;-69
2022/08/05 12:46:22;;;;;;;0.90;0.60;;;;;;;;;;5067039;28;20307;-69
2022/08/05 12:49:11;;;;;;;1.00;0.90;;;;;;;;;;5050935;28;20255;-68
2022/08/05 12:51:48;;;;;;;1.07;0.80;;;;;;;;;;5062947;28;20206;-69
2022/08/05 12:55:01;;;;;;;0.73;0.73;;;;;;;;;;5062472;28;20221;-69
2022/08/05 12:57:36;;;;;;;0.70;0.70;;;;;;;;;;5046476;28;20202;-69
2022/08/05 13:00:31;;;;;;;2.33;0.80;;;;;;;;;;5051046;28;20210;-69
2022/08/05 13:03:18;;;;;;;0.80;0.80;;;;;;;;;;5045415;28;20292;-69
2022/08/05 13:05:47;;;;;;;0.87;0.73;;;;;;;;;;5050901;28;20216;-68
2022/08/05 13:08:21;;;;;;;1.03;0.70;;;;;;;;;;5068730;28;20198;-69
2022/08/05 13:10:58;;;;;;;1.60;0.60;;;;;;;;;;5069168;28;20189;-69
2022/08/05 13:13:32;;;;;;;0.73;0.70;;;;;;;;;;5071859;28;20193;-69
2022/08/05 13:16:24;;;;;;;0.70;0.70;;;;;;;;;;5060069;28;20536;-69
2022/08/05 13:18:57;;;;;;;1.07;0.70;;;;;;;;;;5067502;28;20201;-68
2022/08/05 13:21:32;;;;;;;1.23;0.77;;;;;;;;;;5050180;28;20703;-69
2022/08/05 13:24:17;;;;;;;0.70;0.70;;;;;;;;;;5069381;28;20228;-69
2022/08/05 13:27:08;;;;;;;1.27;0.87;;;;;;;;;;5052697;28;20198;-69
2022/08/05 13:29:49;;;;;;;0.70;0.67;;;;;;;;;;5069031;28;20282;-69
2022/08/05 13:32:47;;;;;;;2.03;0.93;;;;;;;;;;5069288;28;20209;-69
2022/08/05 13:35:20;;;;;;;0.77;0.70;;;;;;;;;;5066945;28;20252;-69
2022/08/05 13:38:10;;;;;;;1.03;0.80;;;;;;;;;;5051716;28;20532;-69
2022/08/05 13:41:01;;;;;;;0.90;0.70;;;;;;;;;;5057159;28;20799;-69
2022/08/05 13:43:33;;;;;;;1.13;0.80;;;;;;;;;;5055841;28;20267;-69
2022/08/05 13:46:15;;;;;;;1.20;0.77;;;;;;;;;;5068965;28;20189;-69
2022/08/05 13:49:05;;;;;;;0.97;0.70;;;;;;;;;;5077353;28;20278;-69
2022/08/05 13:51:42;;;;;;;0.80;0.67;;;;;;;;;;5068831;28;20221;-69
2022/08/05 13:54:15;;;;;;;1.00;0.70;;;;;;;;;;5069281;28;20206;-69
2022/08/05 13:56:53;;;;;;;0.83;0.80;;;;;;;;;;5049450;28;20206;-69
2022/08/05 13:59:23;;;;;;;1.50;0.80;;;;;;;;;;5070060;28;20237;-69
2022/08/05 14:02:02;;;;;;;1.07;0.77;;;;;;;;;;5069150;28;20194;-68
2022/08/05 14:07:38;;;;;;;1.03;0.80;;;;;;;;;;5052311;28;20186;-68
2022/08/05 14:10:34;;;;;;;1.77;0.73;;;;;;;;;;5068571;28;20197;-69
2022/08/05 14:13:06;;;;;;;0.77;0.70;;;;;;;;;;5071929;28;20736;-70
2022/08/05 14:15:37;;;;;;;0.60;0.50;;;;;;;;;;5061994;28;20248;-69
2022/08/05 14:18:31;;;;;;;0.87;0.70;;;;;;;;;;5068684;28;20529;-69
2022/08/05 14:21:05;;;;;;;1.30;0.73;;;;;;;;;;5068409;28;20670;-69
2022/08/05 14:23:56;;;;;;;1.47;0.80;;;;;;;;;;5068836;28;20209;-70
2022/08/05 14:26:28;;;;;;;1.23;0.70;;;;;;;;;;5071136;28;20211;-69
2022/08/05 14:29:13;;;;;;;1.20;0.77;;;;;;;;;;5047382;28;20654;-69
2022/08/05 14:31:45;;;;;;;0.93;0.70;;;;;;;;;;5067355;28;20221;-69
2022/08/05 14:34:45;;;;;;;1.27;0.60;;;;;;;;;;5067962;28;20197;-69
2022/08/05 14:37:27;;;;;;;0.97;0.70;;;;;;;;;;5065770;28;20288;-69
2022/08/05 14:40:15;;;;;;;1.00;0.67;;;;;;;;;;5063979;28;20237;-69
2022/08/05 14:42:47;;;;;;;1.90;0.70;;;;;;;;;;5054917;28;20292;-69
2022/08/05 14:45:23;;;;;;;1.43;1.00;;;;;;;;;;5061879;28;20217;-70
2022/08/05 14:47:55;;;;;;;1.17;0.80;;;;;;;;;;5068358;28;20228;-69
2022/08/05 14:50:34;;;;;;;0.77;0.60;;;;;;;;;;5063979;28;20205;-69
2022/08/05 14:53:07;;;;;;;1.00;0.63;;;;;;;;;;5044567;28;20228;-69
2022/08/05 14:55:38;;;;;;;0.87;0.60;;;;;;;;;;5062641;28;20197;-70
2022/08/05 14:58:19;;;;;;;1.53;0.70;;;;;;;;;;5072410;28;20196;-70
2022/08/05 15:00:52;;;;;;;1.77;0.63;;;;;;;;;;5049606;28;20190;-70
2022/08/05 15:03:32;;;;;;;0.87;0.60;;;;;;;;;;5061060;28;20244;-69
2022/08/05 15:06:24;;;;;;;0.90;0.70;;;;;;;;;;5065865;28;20219;-69
2022/08/05 15:09:01;;;;;;;1.03;0.90;;;;;;;;;;5068331;28;20235;-69
2022/08/05 15:11:37;;;;;;;1.97;0.90;;;;;;;;;;5056433;28;20201;-69
2022/08/05 15:14:21;;;;;;;0.50;0.50;;;;;;;;;;5055612;28;20273;-69
2022/08/05 15:17:06;;;;;;;2.30;0.60;;;;;;;;;;5047948;28;20221;-69
2022/08/05 15:19:58;;;;;;;1.70;0.70;;;;;;;;;;5067615;28;20210;-69
2022/08/05 15:22:27;;;;;;;0.83;0.70;;;;;;;;;;5066027;28;20522;-70
2022/08/05 15:24:58;;;;;;;1.23;0.80;;;;;;;;;;5067025;28;20615;-70
2022/08/05 15:27:43;;;;;;;0.83;0.67;;;;;;;;;;5068078;28;20210;-69
2022/08/05 15:30:23;;;;;;;1.03;0.50;;;;;;;;;;5067775;28;20204;-70
2022/08/05 15:32:56;;;;;;;0.80;0.60;;;;;;;;;;5067063;28;20263;-69
2022/08/05 15:35:27;;;;;;;0.60;0.60;;;;;;;;;;5064174;28;20699;-70
2022/08/05 15:38:03;;;;;;;1.20;0.70;;;;;;;;;;5051474;28;20212;-69
2022/08/05 15:41:00;;;;;;;1.03;0.70;;;;;;;;;;5063029;28;20229;-70
2022/08/05 15:43:51;;;;;;;1.77;0.60;;;;;;;;;;5066960;28;20210;-70
2022/08/05 15:46:24;;;;;;;0.70;0.70;;;;;;;;;;5066416;28;20607;-70
2022/08/05 15:48:56;;;;;;;1.07;0.60;;;;;;;;;;5050550;28;20212;-69
2022/08/05 15:51:36;;;;;;;0.83;0.67;;;;;;;;;;5062678;28;20803;-70
2022/08/05 15:54:35;;;;;;;1.30;1.03;;;;;;;;;;5083049;28;20241;-70
2022/08/05 15:57:06;;;;;;;2.00;0.50;;;;;;;;;;5070060;28;20411;-68
2022/08/05 15:59:39;;;;;;;1.83;0.73;;;;;;;;;;5066954;28;20211;-69
2022/08/05 16:02:12;;;;;;;1.40;0.70;;;;;;;;;;5049044;28;20740;-69
2022/08/05 16:04:56;;;;;;;1.10;0.70;;;;;;;;;;5063148;28;20213;-69
2022/08/05 16:07:41;;;;;;;1.20;0.67;;;;;;;;;;5055337;28;20281;-70
2022/08/05 16:10:15;;;;;;;1.43;0.87;;;;;;;;;;5083058;28;20202;-70
2022/08/05 16:12:55;;;;;;;1.00;0.67;;;;;;;;;;5046286;28;20186;-69
2022/08/05 16:15:28;;;;;;;0.70;0.60;;;;;;;;;;5051310;28;20205;-69
2022/08/05 16:18:00;;;;;;;1.03;0.83;;;;;;;;;;5055546;28;20198;-69